Anchor Point, Alaska
Current Conditions -  °F | °C
As of 3:53 PM on Monday 24 Nov 2014 (Local Time) from PAHO Reporting Station
Scattered Clouds Scattered Clouds  
Wind Chill: 40°   Ceiling: Unl
Heat Index: 40°   Visibility: 10mi
Dew Point: 35°   Wind: 3mph
Humidity: 83%   Direction: 50°NE
Pressure: 29.77"   Gusts: NA
Location:  59.77°N, 151.82°W
Report Text: PAHO 250053Z 05003KT 10SM SCT060 04/02 A2977 RMK AO2 SLP080 T00440017
Loading
Personal Weather Stations






























Interactive Weather Map New forecast layout! Learn more

10-Day Weather Forecast

Advertisements
Track Severe Weather on mobile